createdAt,value
2022-09-12T00:02:09.287Z,85.53
2022-09-12T00:06:22.922Z,85.41
2022-09-12T00:10:31.393Z,85.48
2022-09-12T00:14:38.920Z,85.60
2022-09-12T00:18:47.640Z,85.62
2022-09-12T00:22:55.705Z,85.50
2022-09-12T00:27:03.346Z,85.48
2022-09-12T00:31:12.883Z,85.47
2022-09-12T00:35:21.079Z,85.48
2022-09-12T00:39:29.061Z,85.50
2022-09-12T00:43:42.086Z,85.54
2022-09-12T00:47:49.841Z,85.60
2022-09-12T00:51:59.926Z,85.65
2022-09-12T00:56:08.212Z,85.81
2022-09-12T01:00:18.748Z,85.94
2022-09-12T01:04:28.207Z,85.91
2022-09-12T01:08:37.327Z,85.81
2022-09-12T01:12:46.409Z,85.83
2022-09-12T01:16:54.465Z,85.58
2022-09-12T01:21:10.096Z,85.35
2022-09-12T01:25:22.575Z,85.34
2022-09-12T01:30:05.994Z,85.32
2022-09-12T01:34:22.348Z,85.02
2022-09-12T01:38:36.453Z,85.06
2022-09-12T01:42:48.832Z,85.11
2022-09-12T01:46:59.632Z,84.97
2022-09-12T01:51:11.384Z,85.23
2022-09-12T01:55:23.108Z,85.22
2022-09-12T01:59:34.842Z,85.17
2022-09-12T02:03:45.119Z,85.30
2022-09-12T02:07:57.473Z,85.17
2022-09-12T02:12:07.906Z,85.19
2022-09-12T02:16:20.980Z,85.37
2022-09-12T02:20:47.290Z,85.46
2022-09-12T02:24:58.481Z,85.29
2022-09-12T02:29:07.354Z,85.43
2022-09-12T02:33:20.611Z,85.34
2022-09-12T02:37:36.982Z,85.06
2022-09-12T02:41:44.927Z,84.97
2022-09-12T02:45:52.942Z,85.08
2022-09-12T02:50:01.987Z,84.98
2022-09-12T02:54:11.027Z,84.65
2022-09-12T02:58:20.916Z,85.06
2022-09-12T03:02:33.996Z,84.79
2022-09-12T03:06:50.960Z,84.86
2022-09-12T03:11:20.155Z,84.87
2022-09-12T03:15:36.469Z,84.96
2022-09-12T03:19:54.435Z,84.82
2022-09-12T03:24:10.874Z,84.74
2022-09-12T03:28:20.371Z,84.96
2022-09-12T03:32:44.375Z,84.99
2022-09-12T03:36:52.880Z,85.01
2022-09-12T03:41:00.723Z,85.09
2022-09-12T03:45:11.827Z,84.95
2022-09-12T03:49:21.202Z,85.07
2022-09-12T03:53:29.092Z,85.40
2022-09-12T03:57:37.237Z,85.67
2022-09-12T04:01:44.871Z,85.78
2022-09-12T04:05:52.472Z,85.86
2022-09-12T04:10:01.002Z,85.89
2022-09-12T04:14:09.333Z,86.02
2022-09-12T04:18:20.092Z,85.91
2022-09-12T04:22:27.814Z,85.77
2022-09-12T04:26:36.370Z,85.68
2022-09-12T04:30:44.009Z,85.96
2022-09-12T04:34:52.553Z,85.99
2022-09-12T04:39:01.393Z,86.17
2022-09-12T04:43:14.282Z,86.27
2022-09-12T04:47:23.510Z,86.21
2022-09-12T04:51:33.848Z,86.26
2022-09-12T04:55:41.432Z,86.37
2022-09-12T04:59:49.354Z,86.31
2022-09-12T05:03:58.090Z,86.32
2022-09-12T05:08:06.305Z,86.12
2022-09-12T05:12:14.792Z,86.24
2022-09-12T05:16:23.509Z,86.37
2022-09-12T05:20:33.214Z,86.26
2022-09-12T05:24:58.231Z,86.29
2022-09-12T05:29:07.615Z,86.44
2022-09-12T05:33:15.293Z,86.38
2022-09-12T05:37:23.495Z,86.53
2022-09-12T05:41:34.041Z,86.65
2022-09-12T05:45:44.703Z,86.56
2022-09-12T05:49:52.544Z,86.65
2022-09-12T05:54:01.873Z,86.74
2022-09-12T05:58:09.716Z,86.63
2022-09-12T06:02:17.500Z,86.52
2022-09-12T06:06:28.120Z,86.59
2022-09-12T06:10:35.857Z,86.41
2022-09-12T06:14:43.626Z,86.19
2022-09-12T06:18:53.708Z,86.15
2022-09-12T06:23:01.480Z,85.99
2022-09-12T06:27:09.285Z,85.82
2022-09-12T06:31:18.963Z,85.75
2022-09-12T06:35:27.544Z,85.72
2022-09-12T06:39:36.930Z,85.45
2022-09-12T06:43:44.843Z,85.26
2022-09-12T06:47:51.891Z,84.94
2022-09-12T06:51:59.485Z,84.30
2022-09-12T06:56:11.789Z,84.12
2022-09-12T07:00:19.809Z,83.60
2022-09-12T07:04:28.353Z,83.11
2022-09-12T07:08:37.890Z,82.69
2022-09-12T07:12:45.370Z,82.35
2022-09-12T07:16:53.925Z,81.93
2022-09-12T07:21:04.327Z,81.53
2022-09-12T07:25:12.321Z,80.85
2022-09-12T07:29:37.632Z,80.63
2022-09-12T07:33:46.451Z,79.79
2022-09-12T07:37:55.270Z,79.18
2022-09-12T07:42:03.428Z,79.63
2022-09-12T07:46:12.984Z,79.76
2022-09-12T07:50:25.444Z,79.23
2022-09-12T07:54:33.555Z,78.79
2022-09-12T07:58:43.964Z,78.52
2022-09-12T08:02:56.783Z,78.36
2022-09-12T08:07:06.729Z,77.75
2022-09-12T08:11:16.809Z,77.73
2022-09-12T08:15:24.094Z,77.31
2022-09-12T08:19:32.103Z,76.57
2022-09-12T08:23:42.821Z,76.49
2022-09-12T08:27:50.886Z,76.28
2022-09-12T08:31:58.727Z,76.10
2022-09-12T08:36:12.016Z,74.43
2022-09-12T08:40:21.198Z,75.20
2022-09-12T08:44:39.544Z,74.31
2022-09-12T08:48:48.920Z,73.82
2022-09-12T08:53:00.298Z,73.95
2022-09-12T08:57:10.382Z,73.41
2022-09-12T09:01:28.828Z,73.26
2022-09-12T09:05:49.933Z,73.44
2022-09-12T09:10:16.051Z,73.33
2022-09-12T09:14:51.193Z,71.98
2022-09-12T09:19:01.088Z,71.41
2022-09-12T09:23:13.562Z,72.59
2022-09-12T09:27:46.643Z,73.60
2022-09-12T09:31:56.152Z,74.81
2022-09-12T09:36:14.992Z,75.56
2022-09-12T09:40:28.533Z,75.38
2022-09-12T09:44:35.835Z,75.76
2022-09-12T09:48:50.166Z,75.77
2022-09-12T09:53:00.019Z,76.06
2022-09-12T09:57:08.944Z,75.22
2022-09-12T10:01:19.279Z,74.38
2022-09-12T10:05:28.959Z,73.22
2022-09-12T10:09:38.682Z,72.30
2022-09-12T10:13:57.026Z,72.31
2022-09-12T10:18:05.105Z,71.58
2022-09-12T10:22:18.968Z,71.72
2022-09-12T10:26:27.071Z,71.45
2022-09-12T10:30:34.625Z,70.15
2022-09-12T10:34:45.479Z,70.02
2022-09-12T10:38:55.121Z,70.07
2022-09-12T10:43:03.939Z,70.30
2022-09-12T10:47:24.916Z,69.70
2022-09-12T10:51:32.275Z,69.51
2022-09-12T10:55:39.905Z,68.31
2022-09-12T11:00:03.802Z,67.86
2022-09-12T11:04:25.956Z,66.42
2022-09-12T11:08:45.703Z,66.44
2022-09-12T11:12:58.195Z,66.58
2022-09-12T11:17:13.487Z,66.32
2022-09-12T11:21:33.498Z,66.43
2022-09-12T11:25:47.852Z,65.95
2022-09-12T11:30:01.402Z,64.57
2022-09-12T11:34:12.098Z,64.35
2022-09-12T11:38:40.424Z,64.42
2022-09-12T11:42:49.404Z,64.16
2022-09-12T11:46:57.204Z,64.33
2022-09-12T11:51:07.339Z,64.51
2022-09-12T11:55:21.350Z,64.86
2022-09-12T11:59:34.725Z,64.04
2022-09-12T12:03:44.775Z,64.17
2022-09-12T12:07:56.324Z,63.35
2022-09-12T12:12:08.800Z,62.40
2022-09-12T12:16:19.475Z,62.26
2022-09-12T12:20:28.691Z,62.90
2022-09-12T12:24:36.310Z,62.85
2022-09-12T12:29:05.246Z,63.14
2022-09-12T12:33:53.565Z,63.89
2022-09-12T12:38:01.390Z,64.15
2022-09-12T12:42:09.894Z,63.88
2022-09-12T12:46:18.445Z,63.11
2022-09-12T12:50:28.330Z,62.33
2022-09-12T12:54:51.996Z,62.29
2022-09-12T12:59:03.926Z,62.42
2022-09-12T13:03:23.966Z,62.23
2022-09-12T13:07:37.587Z,63.14
2022-09-12T13:11:45.107Z,63.01
2022-09-12T13:15:54.502Z,63.62
2022-09-12T13:20:33.816Z,63.60
2022-09-12T13:24:49.195Z,63.83
2022-09-12T13:29:13.287Z,63.93
2022-09-12T13:33:30.185Z,63.68
2022-09-12T13:37:50.878Z,63.55
2022-09-12T13:42:27.783Z,63.82
2022-09-12T13:46:36.895Z,62.57
2022-09-12T13:50:47.863Z,62.52
2022-09-12T13:54:58.350Z,62.82
2022-09-12T13:59:11.859Z,62.62
2022-09-12T14:03:48.428Z,61.98
2022-09-12T14:07:59.028Z,61.60
2022-09-12T14:12:21.173Z,60.61
2022-09-12T14:16:29.217Z,60.33
2022-09-12T14:20:40.049Z,60.45
2022-09-12T14:24:51.888Z,59.22
2022-09-12T14:28:59.316Z,58.50
2022-09-12T14:33:21.159Z,57.72
2022-09-12T14:37:29.246Z,56.93
2022-09-12T14:41:40.529Z,56.91
2022-09-12T14:45:55.538Z,56.19
2022-09-12T14:50:03.065Z,55.17
2022-09-12T14:54:39.698Z,55.01
2022-09-12T14:58:47.582Z,55.03
2022-09-12T15:02:55.604Z,55.20
2022-09-12T15:07:04.676Z,55.41
2022-09-12T15:11:12.529Z,56.10
2022-09-12T15:15:21.970Z,56.96
2022-09-12T15:19:29.682Z,57.13
2022-09-12T15:23:40.289Z,57.29
2022-09-12T15:27:48.129Z,57.87
2022-09-12T15:31:55.608Z,58.61
2022-09-12T15:36:03.670Z,59.23
2022-09-12T15:40:13.639Z,60.05
2022-09-12T15:44:23.789Z,60.47
2022-09-12T15:48:31.741Z,60.84
2022-09-12T15:52:39.846Z,61.18
2022-09-12T15:56:49.160Z,61.42
2022-09-12T16:00:56.663Z,62.19
2022-09-12T16:05:04.961Z,62.43
2022-09-12T16:09:16.674Z,62.66
2022-09-12T16:13:24.819Z,63.10
2022-09-12T16:17:32.930Z,63.30
2022-09-12T16:21:43.411Z,63.61
2022-09-12T16:25:59.458Z,64.07
2022-09-12T16:30:10.460Z,64.75
2022-09-12T16:34:18.277Z,65.04
2022-09-12T16:38:26.964Z,65.25
2022-09-12T16:42:35.577Z,65.69
2022-09-12T16:46:43.609Z,66.19
2022-09-12T16:51:00.838Z,66.31
2022-09-12T16:55:15.444Z,66.53
2022-09-12T16:59:29.313Z,66.83
2022-09-12T17:03:39.753Z,66.84
2022-09-12T17:07:48.851Z,66.82
2022-09-12T17:11:57.456Z,66.96
2022-09-12T17:16:08.666Z,67.15
2022-09-12T17:20:17.141Z,67.33
2022-09-12T17:24:25.404Z,67.59
2022-09-12T17:28:33.736Z,67.87
2022-09-12T17:32:41.573Z,68.21
2022-09-12T17:36:50.221Z,68.72
2022-09-12T17:41:00.063Z,68.92
2022-09-12T17:45:12.292Z,68.70
2022-09-12T17:49:23.282Z,69.23
2022-09-12T17:53:31.993Z,69.54
2022-09-12T17:57:40.497Z,69.81
2022-09-12T18:02:05.937Z,70.05
2022-09-12T18:06:14.486Z,70.25
2022-09-12T18:10:23.072Z,70.62
2022-09-12T18:14:31.653Z,71.49
2022-09-12T18:18:39.579Z,72.25
2022-09-12T18:22:47.522Z,72.79
2022-09-12T18:26:56.832Z,73.10
2022-09-12T18:31:04.787Z,73.33
2022-09-12T18:35:13.174Z,73.64
2022-09-12T18:39:25.369Z,73.89
2022-09-12T18:43:35.952Z,74.02
2022-09-12T18:47:43.840Z,73.93
2022-09-12T18:51:51.872Z,74.17
2022-09-12T18:56:05.775Z,74.27
2022-09-12T19:00:16.562Z,74.60
2022-09-12T19:04:25.340Z,74.50
2022-09-12T19:08:33.604Z,74.82
2022-09-12T19:12:41.418Z,74.91
2022-09-12T19:16:50.856Z,75.29
2022-09-12T19:21:00.635Z,75.51
2022-09-12T19:25:10.218Z,75.52
2022-09-12T19:29:19.105Z,75.88
2022-09-12T19:33:29.373Z,76.33
2022-09-12T19:37:38.354Z,76.32
2022-09-12T19:41:45.700Z,76.48
2022-09-12T19:45:53.462Z,76.27
2022-09-12T19:50:01.082Z,76.04
2022-09-12T19:54:09.695Z,76.00
2022-09-12T19:58:17.778Z,76.12
2022-09-12T20:02:28.280Z,76.25
2022-09-12T20:06:36.794Z,76.29
2022-09-12T20:10:44.838Z,76.59
2022-09-12T20:14:52.483Z,77.25
2022-09-12T20:19:02.161Z,77.43
2022-09-12T20:23:09.955Z,77.21
2022-09-12T20:27:18.940Z,77.02
2022-09-12T20:31:27.179Z,77.11
2022-09-12T20:35:34.718Z,77.12
2022-09-12T20:39:44.509Z,77.12
2022-09-12T20:43:54.537Z,76.99
2022-09-12T20:48:02.462Z,77.15
2022-09-12T20:52:10.155Z,77.36
2022-09-12T20:56:18.077Z,77.41
2022-09-12T21:00:25.915Z,77.42
2022-09-12T21:04:34.136Z,77.79
2022-09-12T21:08:41.983Z,77.54
2022-09-12T21:12:50.074Z,77.65
2022-09-12T21:16:57.644Z,77.72
2022-09-12T21:21:06.258Z,77.90
2022-09-12T21:25:15.331Z,78.15
2022-09-12T21:29:23.216Z,78.07
2022-09-12T21:33:30.851Z,78.19
2022-09-12T21:37:39.094Z,78.37
2022-09-12T21:41:47.020Z,78.44
2022-09-12T21:46:00.692Z,78.37
2022-09-12T21:50:10.325Z,78.66
2022-09-12T21:54:18.215Z,78.74
2022-09-12T21:58:26.253Z,78.65
2022-09-12T22:02:34.218Z,78.81
2022-09-12T22:06:41.677Z,78.98
2022-09-12T22:10:50.913Z,78.85
2022-09-12T22:14:58.692Z,78.84
2022-09-12T22:19:06.635Z,79.32
2022-09-12T22:23:32.376Z,79.07
2022-09-12T22:27:41.099Z,79.10
2022-09-12T22:31:48.710Z,79.27
2022-09-12T22:35:56.333Z,79.67
2022-09-12T22:40:04.398Z,79.45
2022-09-12T22:44:12.551Z,79.77
2022-09-12T22:48:20.105Z,79.84
2022-09-12T22:52:28.304Z,79.52
2022-09-12T22:56:36.284Z,79.76
2022-09-12T23:00:50.337Z,79.50
2022-09-12T23:04:59.065Z,79.52
2022-09-12T23:09:06.527Z,79.87
2022-09-12T23:13:14.184Z,79.84
2022-09-12T23:17:24.586Z,79.81
2022-09-12T23:21:33.024Z,79.63
2022-09-12T23:25:42.236Z,79.69
2022-09-12T23:29:54.177Z,79.72
2022-09-12T23:34:03.632Z,79.86
2022-09-12T23:38:14.635Z,79.89
2022-09-12T23:42:23.336Z,80.06
2022-09-12T23:46:30.733Z,80.11
2022-09-12T23:50:39.711Z,80.32
2022-09-12T23:54:48.425Z,80.41
2022-09-12T23:58:56.326Z,80.31
